NDF56PK EDDH-EDDN
Flight info
| Callsign | NDF56PK |
|---|---|
| Flight time | 0h 55m |
| Altitude | 37000 |
| Route | AMLUH2G/33 AMLUH M852 DENIX DCT ZUCKA DCT GALMA M736 TABAT Q244 NIBIL/N0405F230 Q244 PIVIR PIVIR1V |
| Aircraft | A320/M-SDE3FGHIRWY/LB1 |
Departure
| Time | 2026-04-25 12:17 |
|---|---|
| Airport | Hamburg Helmut Schmidt Airport (EDDH) |
Arrival
| Time | 2026-04-25 13:12 |
|---|---|
| Airport | Nuremberg Airport (EDDN) |
| Time | Latitude | Longitude | Altitude | Speed | Heading |
|---|---|---|---|---|---|
| 2026-04-25 11:53 | 53.63112 | 10.00381 | 49 ft | 0 kts | 87° |
| 2026-04-25 11:54 | 53.63073 | 10.00387 | 49 ft | 0 kts | 93° |
| 2026-04-25 12:09 | 53.63074 | 10.00385 | 48 ft | 2 kts | 93° |
| 2026-04-25 12:10 | 53.63075 | 10.00343 | 48 ft | 4 kts | 93° |
| 2026-04-25 12:10 | 53.63076 | 10.00307 | 48 ft | 4 kts | 100° |
| 2026-04-25 12:10 | 53.63086 | 10.00270 | 44 ft | 4 kts | 148° |
| 2026-04-25 12:10 | 53.63101 | 10.00260 | 47 ft | 0 kts | 176° |
| 2026-04-25 12:13 | 53.63069 | 10.00256 | 48 ft | 8 kts | 195° |
| 2026-04-25 12:13 | 53.63027 | 10.00218 | 47 ft | 6 kts | 213° |
| 2026-04-25 12:14 | 53.62995 | 10.00184 | 45 ft | 5 kts | 212° |
| 2026-04-25 12:14 | 53.62969 | 10.00155 | 48 ft | 6 kts | 213° |
| 2026-04-25 12:14 | 53.62894 | 10.00064 | 48 ft | 17 kts | 219° |
| 2026-04-25 12:14 | 53.62832 | 9.99915 | 47 ft | 16 kts | 239° |
| 2026-04-25 12:15 | 53.62809 | 9.99804 | 45 ft | 7 kts | 293° |
| 2026-04-25 12:15 | 53.62831 | 9.99776 | 45 ft | 0 kts | 330° |
| 2026-04-25 12:16 | 53.62865 | 9.99746 | 45 ft | 21 kts | 333° |
| 2026-04-25 12:16 | 53.63219 | 9.99437 | 47 ft | 91 kts | 333° |
| 2026-04-25 12:16 | 53.63951 | 9.98815 | 60 ft | 142 kts | 328° |
| 2026-04-25 12:17 | 53.64832 | 9.98102 | 730 ft | 139 kts | 328° |
| 2026-04-25 12:17 | 53.65695 | 9.97371 | 1512 ft | 139 kts | 327° |
| 2026-04-25 12:17 | 53.66551 | 9.96634 | 2258 ft | 138 kts | 326° |
| 2026-04-25 12:17 | 53.67442 | 9.95850 | 2738 ft | 154 kts | 326° |
| 2026-04-25 12:18 | 53.68468 | 9.94975 | 3098 ft | 178 kts | 334° |
| 2026-04-25 12:18 | 53.69778 | 9.94646 | 3529 ft | 201 kts | 353° |
| 2026-04-25 12:18 | 53.71192 | 9.94674 | 4293 ft | 205 kts | 354° |
| 2026-04-25 12:18 | 53.72597 | 9.95412 | 5163 ft | 228 kts | 27° |
| 2026-04-25 12:19 | 53.74028 | 9.99518 | 6549 ft | 258 kts | 67° |
| 2026-04-25 12:19 | 53.74061 | 10.03777 | 7145 ft | 299 kts | 107° |
| 2026-04-25 12:19 | 53.72914 | 10.06798 | 7620 ft | 315 kts | 143° |
| 2026-04-25 12:20 | 53.70997 | 10.08478 | 8355 ft | 311 kts | 171° |
| 2026-04-25 12:20 | 53.68896 | 10.09413 | 9212 ft | 314 kts | 173° |
| 2026-04-25 12:20 | 53.67457 | 10.10002 | 9725 ft | 319 kts | 174° |
| 2026-04-25 12:20 | 53.65282 | 10.10867 | 10007 ft | 321 kts | 174° |
| 2026-04-25 12:21 | 53.63077 | 10.11737 | 10079 ft | 339 kts | 174° |
| 2026-04-25 12:21 | 53.60674 | 10.12673 | 10085 ft | 366 kts | 173° |
| 2026-04-25 12:21 | 53.58145 | 10.13691 | 10538 ft | 377 kts | 172° |
| 2026-04-25 12:21 | 53.55620 | 10.14742 | 11333 ft | 380 kts | 171° |
| 2026-04-25 12:22 | 53.53052 | 10.15829 | 12165 ft | 382 kts | 171° |
| 2026-04-25 12:22 | 53.50460 | 10.16922 | 12948 ft | 385 kts | 171° |
| 2026-04-25 12:22 | 53.47846 | 10.18018 | 13703 ft | 389 kts | 172° |
| 2026-04-25 12:22 | 53.45210 | 10.19116 | 14381 ft | 392 kts | 172° |
| 2026-04-25 12:23 | 53.42540 | 10.20223 | 15026 ft | 396 kts | 172° |
| 2026-04-25 12:23 | 53.39850 | 10.21332 | 15680 ft | 400 kts | 172° |
| 2026-04-25 12:23 | 53.37127 | 10.22446 | 16324 ft | 404 kts | 172° |
| 2026-04-25 12:23 | 53.34385 | 10.23570 | 16958 ft | 408 kts | 172° |
| 2026-04-25 12:24 | 53.31613 | 10.24717 | 17575 ft | 412 kts | 172° |
| 2026-04-25 12:24 | 53.28823 | 10.25864 | 18172 ft | 415 kts | 171° |
| 2026-04-25 12:24 | 53.26012 | 10.27021 | 18751 ft | 418 kts | 171° |
| 2026-04-25 12:24 | 53.23178 | 10.28186 | 19288 ft | 421 kts | 171° |
| 2026-04-25 12:25 | 53.20355 | 10.29343 | 19808 ft | 424 kts | 171° |
| 2026-04-25 12:25 | 53.17481 | 10.30514 | 20324 ft | 427 kts | 171° |
| 2026-04-25 12:25 | 53.14579 | 10.31690 | 20838 ft | 430 kts | 171° |
| 2026-04-25 12:25 | 53.11659 | 10.32879 | 21338 ft | 434 kts | 171° |
| 2026-04-25 12:26 | 53.08716 | 10.34081 | 21841 ft | 437 kts | 171° |
| 2026-04-25 12:26 | 53.05755 | 10.35288 | 22330 ft | 440 kts | 171° |
| 2026-04-25 12:26 | 53.02770 | 10.36499 | 22813 ft | 443 kts | 171° |
| 2026-04-25 12:26 | 52.99765 | 10.37714 | 23290 ft | 446 kts | 171° |
| 2026-04-25 12:27 | 52.96732 | 10.38935 | 23727 ft | 449 kts | 171° |
| 2026-04-25 12:27 | 52.93680 | 10.40166 | 24111 ft | 452 kts | 171° |
| 2026-04-25 12:27 | 52.90615 | 10.41402 | 24498 ft | 455 kts | 171° |
| 2026-04-25 12:27 | 52.87524 | 10.42651 | 24871 ft | 458 kts | 171° |
| 2026-04-25 12:28 | 52.84419 | 10.43903 | 25247 ft | 461 kts | 171° |
| 2026-04-25 12:28 | 52.81292 | 10.45159 | 25617 ft | 464 kts | 171° |
| 2026-04-25 12:28 | 52.78145 | 10.46420 | 25958 ft | 466 kts | 171° |
| 2026-04-25 12:28 | 52.74986 | 10.47681 | 26319 ft | 469 kts | 171° |
| 2026-04-25 12:29 | 52.71798 | 10.48951 | 26665 ft | 472 kts | 171° |
| 2026-04-25 12:29 | 52.68597 | 10.50225 | 27035 ft | 475 kts | 171° |
| 2026-04-25 12:29 | 52.65378 | 10.51510 | 27383 ft | 477 kts | 171° |
| 2026-04-25 12:29 | 52.62139 | 10.52800 | 27731 ft | 480 kts | 171° |
| 2026-04-25 12:30 | 52.58882 | 10.54097 | 28066 ft | 483 kts | 171° |
| 2026-04-25 12:30 | 52.55607 | 10.55401 | 28419 ft | 485 kts | 171° |
| 2026-04-25 12:30 | 52.52315 | 10.56706 | 28705 ft | 487 kts | 171° |
| 2026-04-25 12:30 | 52.49012 | 10.58015 | 29050 ft | 489 kts | 171° |
| 2026-04-25 12:31 | 52.45690 | 10.59328 | 29358 ft | 491 kts | 171° |
| 2026-04-25 12:31 | 52.42404 | 10.60622 | 29654 ft | 494 kts | 171° |
| 2026-04-25 12:31 | 52.39059 | 10.61934 | 29949 ft | 496 kts | 171° |
| 2026-04-25 12:31 | 52.35692 | 10.63250 | 30235 ft | 498 kts | 171° |
| 2026-04-25 12:32 | 52.32327 | 10.64564 | 30578 ft | 498 kts | 171° |
| 2026-04-25 12:32 | 52.28951 | 10.65888 | 30923 ft | 497 kts | 171° |
| 2026-04-25 12:32 | 52.25586 | 10.67212 | 31251 ft | 497 kts | 170° |
| 2026-04-25 12:32 | 52.22228 | 10.68532 | 31614 ft | 496 kts | 170° |
| 2026-04-25 12:33 | 52.18876 | 10.69843 | 31965 ft | 496 kts | 170° |
| 2026-04-25 12:33 | 52.15518 | 10.71153 | 32311 ft | 495 kts | 171° |
| 2026-04-25 12:33 | 52.12164 | 10.72456 | 32659 ft | 495 kts | 171° |
| 2026-04-25 12:33 | 52.08813 | 10.73755 | 32993 ft | 495 kts | 171° |
| 2026-04-25 12:34 | 52.05462 | 10.75053 | 33338 ft | 495 kts | 171° |
| 2026-04-25 12:34 | 52.02107 | 10.76351 | 33653 ft | 494 kts | 170° |
| 2026-04-25 12:34 | 51.98768 | 10.77640 | 34047 ft | 493 kts | 170° |
| 2026-04-25 12:34 | 51.96562 | 10.78489 | 34270 ft | 492 kts | 170° |
| 2026-04-25 12:35 | 51.92115 | 10.80197 | 34717 ft | 490 kts | 170° |
| 2026-04-25 12:35 | 51.88801 | 10.81467 | 35053 ft | 489 kts | 170° |
| 2026-04-25 12:35 | 51.85497 | 10.82733 | 35376 ft | 487 kts | 170° |
| 2026-04-25 12:35 | 51.82243 | 10.83980 | 35687 ft | 486 kts | 170° |
| 2026-04-25 12:36 | 51.78960 | 10.85237 | 35985 ft | 485 kts | 170° |
| 2026-04-25 12:36 | 51.75681 | 10.86490 | 36302 ft | 482 kts | 170° |
| 2026-04-25 12:36 | 51.72449 | 10.87908 | 36631 ft | 483 kts | 163° |
| 2026-04-25 12:36 | 51.69365 | 10.90082 | 36917 ft | 485 kts | 153° |
| 2026-04-25 12:37 | 51.66519 | 10.93017 | 37046 ft | 488 kts | 143° |
| 2026-04-25 12:37 | 51.61831 | 11.00898 | 37070 ft | 489 kts | 128° |
| 2026-04-25 12:38 | 51.57608 | 11.09488 | 37068 ft | 489 kts | 129° |
| 2026-04-25 12:38 | 51.53348 | 11.18023 | 37063 ft | 490 kts | 129° |
| 2026-04-25 12:39 | 51.49079 | 11.26559 | 37062 ft | 489 kts | 129° |
| 2026-04-25 12:39 | 51.44806 | 11.35041 | 37069 ft | 488 kts | 133° |
| 2026-04-25 12:40 | 51.39557 | 11.41803 | 37066 ft | 483 kts | 154° |
| 2026-04-25 12:40 | 51.33329 | 11.45434 | 37061 ft | 474 kts | 173° |
| 2026-04-25 12:41 | 51.26856 | 11.46350 | 37057 ft | 469 kts | 181° |
| 2026-04-25 12:41 | 51.20336 | 11.46987 | 37044 ft | 470 kts | 180° |
| 2026-04-25 12:42 | 51.13804 | 11.47624 | 37060 ft | 470 kts | 180° |
| 2026-04-25 12:42 | 51.07269 | 11.48254 | 37062 ft | 469 kts | 180° |
| 2026-04-25 12:43 | 51.00743 | 11.48873 | 37042 ft | 469 kts | 180° |
| 2026-04-25 12:43 | 50.90971 | 11.49804 | 37069 ft | 469 kts | 180° |
| 2026-04-25 12:44 | 50.84461 | 11.50429 | 37070 ft | 468 kts | 180° |
| 2026-04-25 12:45 | 50.74705 | 11.51342 | 37049 ft | 468 kts | 180° |
| 2026-04-25 12:45 | 50.64999 | 11.52262 | 37072 ft | 467 kts | 180° |
| 2026-04-25 12:46 | 50.58521 | 11.52880 | 37068 ft | 467 kts | 180° |
| 2026-04-25 12:46 | 50.52040 | 11.53668 | 37077 ft | 468 kts | 177° |
| 2026-04-25 12:47 | 50.45579 | 11.55032 | 37074 ft | 469 kts | 175° |
| 2026-04-25 12:47 | 50.39128 | 11.56538 | 37083 ft | 468 kts | 175° |
| 2026-04-25 12:48 | 50.32677 | 11.57935 | 37084 ft | 468 kts | 176° |
| 2026-04-25 12:48 | 50.26222 | 11.59219 | 37083 ft | 467 kts | 176° |
| 2026-04-25 12:49 | 50.19770 | 11.60496 | 37087 ft | 467 kts | 176° |
| 2026-04-25 12:49 | 50.13331 | 11.61801 | 37078 ft | 466 kts | 176° |
| 2026-04-25 12:50 | 50.06889 | 11.62875 | 37082 ft | 463 kts | 183° |
| 2026-04-25 12:50 | 50.00535 | 11.62278 | 37071 ft | 459 kts | 188° |
| 2026-04-25 12:51 | 49.94309 | 11.60598 | 37072 ft | 451 kts | 203° |
| 2026-04-25 12:51 | 49.88577 | 11.56797 | 37072 ft | 447 kts | 208° |
| 2026-04-25 12:52 | 49.82889 | 11.52864 | 37061 ft | 447 kts | 208° |
| 2026-04-25 12:52 | 49.77217 | 11.48911 | 36940 ft | 446 kts | 208° |
| 2026-04-25 12:53 | 49.74434 | 11.46746 | 35964 ft | 448 kts | 217° |
| 2026-04-25 12:53 | 49.72005 | 11.43739 | 35017 ft | 446 kts | 230° |
| 2026-04-25 12:53 | 49.70121 | 11.40055 | 34039 ft | 440 kts | 242° |
| 2026-04-25 12:53 | 49.68810 | 11.35809 | 32471 ft | 436 kts | 255° |
| 2026-04-25 12:54 | 49.68180 | 11.31262 | 30975 ft | 432 kts | 266° |
| 2026-04-25 12:54 | 49.68231 | 11.26646 | 29671 ft | 427 kts | 278° |
| 2026-04-25 12:54 | 49.68692 | 11.22211 | 28935 ft | 409 kts | 279° |
| 2026-04-25 12:54 | 49.69121 | 11.17958 | 28257 ft | 393 kts | 278° |
| 2026-04-25 12:55 | 49.69522 | 11.13802 | 27620 ft | 390 kts | 278° |
| 2026-04-25 12:55 | 49.69781 | 11.11061 | 27197 ft | 388 kts | 278° |
| 2026-04-25 12:55 | 49.70297 | 11.05572 | 26358 ft | 384 kts | 278° |
| 2026-04-25 12:55 | 49.70688 | 11.01505 | 25737 ft | 381 kts | 278° |
| 2026-04-25 12:56 | 49.71080 | 10.97465 | 25128 ft | 379 kts | 278° |
| 2026-04-25 12:56 | 49.71469 | 10.93460 | 24524 ft | 376 kts | 278° |
| 2026-04-25 12:56 | 49.71854 | 10.89475 | 23921 ft | 373 kts | 278° |
| 2026-04-25 12:56 | 49.72236 | 10.85509 | 23277 ft | 371 kts | 278° |
| 2026-04-25 12:57 | 49.72612 | 10.81587 | 22688 ft | 367 kts | 278° |
| 2026-04-25 12:57 | 49.72978 | 10.77705 | 22168 ft | 363 kts | 277° |
| 2026-04-25 12:57 | 49.72936 | 10.73845 | 21690 ft | 359 kts | 259° |
| 2026-04-25 12:57 | 49.71963 | 10.70322 | 21450 ft | 361 kts | 237° |
| 2026-04-25 12:58 | 49.70097 | 10.67711 | 21126 ft | 370 kts | 212° |
| 2026-04-25 12:58 | 49.67624 | 10.66572 | 20825 ft | 378 kts | 187° |
| 2026-04-25 12:58 | 49.65014 | 10.67168 | 20522 ft | 387 kts | 161° |
| 2026-04-25 12:58 | 49.62747 | 10.69422 | 20191 ft | 394 kts | 136° |
| 2026-04-25 12:59 | 49.61268 | 10.72893 | 19883 ft | 396 kts | 111° |
| 2026-04-25 12:59 | 49.60800 | 10.77029 | 19447 ft | 392 kts | 85° |
| 2026-04-25 12:59 | 49.61210 | 10.81166 | 19001 ft | 388 kts | 77° |
| 2026-04-25 12:59 | 49.61699 | 10.85247 | 18548 ft | 386 kts | 79° |
| 2026-04-25 13:00 | 49.61768 | 10.89375 | 18057 ft | 386 kts | 96° |
| 2026-04-25 13:00 | 49.61645 | 10.90756 | 17897 ft | 385 kts | 98° |
| 2026-04-25 13:00 | 49.60984 | 10.97513 | 17080 ft | 381 kts | 98° |
| 2026-04-25 13:00 | 49.60586 | 11.01546 | 16587 ft | 379 kts | 98° |
| 2026-04-25 13:01 | 49.60188 | 11.05562 | 16087 ft | 378 kts | 98° |
| 2026-04-25 13:01 | 49.59789 | 11.09567 | 15579 ft | 378 kts | 98° |
| 2026-04-25 13:01 | 49.59392 | 11.13566 | 15065 ft | 378 kts | 98° |
| 2026-04-25 13:01 | 49.58996 | 11.17567 | 14543 ft | 377 kts | 98° |
| 2026-04-25 13:02 | 49.58603 | 11.21565 | 14019 ft | 377 kts | 97° |
| 2026-04-25 13:02 | 49.58215 | 11.25522 | 13445 ft | 377 kts | 98° |
| 2026-04-25 13:02 | 49.57817 | 11.29552 | 12907 ft | 375 kts | 98° |
| 2026-04-25 13:02 | 49.57421 | 11.33513 | 12353 ft | 373 kts | 98° |
| 2026-04-25 13:03 | 49.57028 | 11.37400 | 11821 ft | 371 kts | 98° |
| 2026-04-25 13:03 | 49.56628 | 11.41318 | 11263 ft | 369 kts | 98° |
| 2026-04-25 13:03 | 49.56229 | 11.45215 | 10750 ft | 367 kts | 98° |
| 2026-04-25 13:03 | 49.55840 | 11.49017 | 10610 ft | 352 kts | 98° |
| 2026-04-25 13:04 | 49.55465 | 11.52667 | 10481 ft | 335 kts | 98° |
| 2026-04-25 13:04 | 49.55112 | 11.56091 | 10260 ft | 315 kts | 98° |
| 2026-04-25 13:04 | 49.54671 | 11.59358 | 9913 ft | 309 kts | 111° |
| 2026-04-25 13:04 | 49.53527 | 11.62093 | 9778 ft | 303 kts | 138° |
| 2026-04-25 13:05 | 49.51774 | 11.63844 | 9348 ft | 303 kts | 163° |
| 2026-04-25 13:05 | 49.49711 | 11.64199 | 8906 ft | 294 kts | 189° |
| 2026-04-25 13:05 | 49.48385 | 11.63907 | 8495 ft | 289 kts | 193° |
| 2026-04-25 13:05 | 49.46550 | 11.62838 | 7830 ft | 279 kts | 219° |
| 2026-04-25 13:06 | 49.45308 | 11.60651 | 7205 ft | 268 kts | 247° |
| 2026-04-25 13:06 | 49.44870 | 11.57915 | 6521 ft | 263 kts | 272° |
| 2026-04-25 13:06 | 49.45107 | 11.55166 | 6000 ft | 256 kts | 280° |
| 2026-04-25 13:06 | 49.45376 | 11.52495 | 5795 ft | 249 kts | 280° |
| 2026-04-25 13:07 | 49.45634 | 11.49925 | 5674 ft | 238 kts | 281° |
| 2026-04-25 13:07 | 49.45883 | 11.47479 | 5565 ft | 226 kts | 279° |
| 2026-04-25 13:07 | 49.46121 | 11.45155 | 5456 ft | 214 kts | 280° |
| 2026-04-25 13:07 | 49.46347 | 11.42932 | 5291 ft | 207 kts | 280° |
| 2026-04-25 13:08 | 49.46571 | 11.40736 | 5049 ft | 209 kts | 279° |
| 2026-04-25 13:08 | 49.46796 | 11.38516 | 4782 ft | 212 kts | 281° |
| 2026-04-25 13:08 | 49.47023 | 11.36285 | 4485 ft | 214 kts | 280° |
| 2026-04-25 13:08 | 49.47252 | 11.34021 | 4198 ft | 214 kts | 279° |
| 2026-04-25 13:09 | 49.47482 | 11.31744 | 3913 ft | 217 kts | 280° |
| 2026-04-25 13:09 | 49.47712 | 11.29462 | 3627 ft | 214 kts | 279° |
| 2026-04-25 13:09 | 49.47934 | 11.27248 | 3346 ft | 201 kts | 279° |
| 2026-04-25 13:09 | 49.48141 | 11.25178 | 3094 ft | 192 kts | 280° |
| 2026-04-25 13:10 | 49.48341 | 11.23181 | 2845 ft | 185 kts | 279° |
| 2026-04-25 13:10 | 49.48530 | 11.21294 | 2601 ft | 172 kts | 279° |
| 2026-04-25 13:10 | 49.48700 | 11.19589 | 2377 ft | 151 kts | 281° |
| 2026-04-25 13:10 | 49.48850 | 11.18077 | 2180 ft | 137 kts | 281° |
| 2026-04-25 13:11 | 49.48982 | 11.16683 | 1973 ft | 129 kts | 278° |
| 2026-04-25 13:11 | 49.49124 | 11.15283 | 1760 ft | 134 kts | 280° |
| 2026-04-25 13:11 | 49.49271 | 11.13891 | 1622 ft | 127 kts | 282° |
| 2026-04-25 13:11 | 49.49421 | 11.12482 | 1430 ft | 135 kts | 278° |
| 2026-04-25 13:12 | 49.49547 | 11.11076 | 1256 ft | 130 kts | 279° |
| 2026-04-25 13:12 | 49.49680 | 11.09710 | 1105 ft | 126 kts | 279° |
| 2026-04-25 13:12 | 49.49801 | 11.08491 | 1037 ft | 93 kts | 279° |
| 2026-04-25 13:12 | 49.49848 | 11.08033 | 1030 ft | 47 kts | 278° |
| 2026-04-25 13:13 | 49.49859 | 11.07640 | 1026 ft | 12 kts | 192° |
| 2026-04-25 13:13 | 49.49815 | 11.07654 | 1024 ft | 4 kts | 152° |
| 2026-04-25 13:13 | 49.49789 | 11.07677 | 1025 ft | 5 kts | 151° |
| 2026-04-25 13:13 | 49.49765 | 11.07695 | 1026 ft | 3 kts | 153° |
| 2026-04-25 13:14 | 49.49746 | 11.07710 | 1023 ft | 7 kts | 153° |
| 2026-04-25 13:14 | 49.49705 | 11.07742 | 1025 ft | 5 kts | 153° |
| 2026-04-25 13:14 | 49.49682 | 11.07760 | 1027 ft | 2 kts | 154° |
| 2026-04-25 13:14 | 49.49631 | 11.07764 | 1026 ft | 9 kts | 188° |
| 2026-04-25 13:15 | 49.49587 | 11.07742 | 1027 ft | 4 kts | 200° |
| 2026-04-25 13:15 | 49.49563 | 11.07733 | 1026 ft | 3 kts | 193° |
| 2026-04-25 13:15 | 49.49544 | 11.07729 | 1026 ft | 3 kts | 187° |
| 2026-04-25 13:15 | 49.49528 | 11.07725 | 1023 ft | 2 kts | 189° |
| 2026-04-25 13:16 | 49.49524 | 11.07724 | 1024 ft | 0 kts | 189° |